Tiempo atmosférico en la estación meteorológica de El Bodón Base Aérea, Salamanca (805 m.)



Fecha
DESCASC
Temp. máxima en grados centígrados (hora)
DESCASC
Temp. mínima en grados centígrados (hora)
DESCASC
Temp. media en grados centígrados
DESCASC
Racha de viento máxima en m/sg (hora)
DESCASC
Velocidad máxima media en intervalos de 10 minutos(hora)
DESCASC
Precipitaciones diarias en mm
DESCASC
Precipitaciones de 00:00 a 06:00 en mm
DESCASC
Precipitaciones de 06:00 a 12:00 en mm
DESCASC
Precipitaciones de 12:00 a 18:00 en mm
DESCASC
Precipitaciones de 18:00 a 24:00 en mm
DESCASC
25-04-2019 11.6 (16:10) 3.4 (09:50) 7.5 17.22 (18:20) 9.17 (19:00) 2.6 0.4 2.2 0 0
24-04-2019 12.1 (14:20) 2.9 (00:50) 7.5 16.67 (13:40) 11.11 (14:10) 10.2 1 3 2.6 3.6
23-04-2019 10.6 (00:00) 2.9 (08:00) 6.8 12.5 (15:30) 9.17 (16:40) 5.6 3.4 1.4 0.8 0
22-04-2019 17.4 (16:30) 4.5 (00:00) 10.9 11.67 (22:10) 7.5 (23:40) 0 0 0 0 0
21-04-2019 16.3 (17:50) 5.6 (00:00) 10.9 13.06 (16:50) 6.94 (16:50) 0 0 0 0 0
20-04-2019 20.6 (16:30) 7.9 (00:00) 14.3 13.33 (14:00) 8.61 (13:50) 0 0 0 0 0
19-04-2019 14.8 (17:50) 6.9 (00:00) 10.9 9.17 (22:00) 5.28 (22:20) 4.2 1.6 0 2.6 0
18-04-2019 12.3 (16:10) 6.8 (00:00) 9.6 7.5 (02:30) 5.28 (00:10) 5.6 2 0.6 2.4 0.6
17-04-2019 16 (00:30) 8.1 (00:00) 12.1 19.72 (15:40) 11.67 (16:10) 12.8 0 0 2 10.8
16-04-2019 17.3 (18:30) 0 (00:00) 8.6 11.39 (16:30) 7.78 (18:00) 0 0 0 0 0
15-04-2019 17.3 (14:00) 7.4 (00:00) 12.3 15.28 (11:50) 9.17 (13:20) 5.6 0 0 2 3.6
14-04-2019 18.9 (18:50) 9.6 (00:00) 14.3 5.83 (17:50) 3.89 (21:40) 0 0 0 0 0
13-04-2019 20 (17:20) 3.7 (00:00) 11.9 8.61 (18:20) 5.83 (18:20) 0 0 0 0 0
12-04-2019 16.2 (18:10) -0.3 (00:00) 8 6.67 (15:40) 3.89 (16:20) 0 0 0 0 0
11-04-2019 13.5 (17:40) 2.2 (00:00) 7.9 8.61 (16:50) 4.72 (15:50) 0 0 0 0 0
10-04-2019 13.1 (17:20) 4.8 (00:00) 9 11.39 (20:50) 7.5 (20:30) 0.2 0 0.2 0 0
09-04-2019 11.6 (17:20) 3.4 (00:00) 7.5 15.56 (15:20) 9.17 (15:30) 1.8 0 1.6 0.2 0
08-04-2019 13.4 (15:30) 4.9 (00:00) 9.1 10.56 (17:00) 7.5 (02:10) 3.2 0.8 0.6 1.6 0.2
07-04-2019 9.3 (18:30) 3.3 (00:00) 6.3 11.67 (18:40) 8.61 (18:40) 1.4 0.2 1.2 0 0
06-04-2019 8.5 (16:10) 0.5 (00:00) 4.5 14.17 (13:00) 9.44 (13:00) 4.4 0 4.2 0.2 0
05-04-2019 8.8 (16:30) 1 (00:00) 4.9 11.11 (14:20) 7.5 (02:10) 4 1.2 0.2 2 0.6
04-04-2019 12.3 (16:40) -2.3 (-00:0) 5 10.28 (22:00) 7.22 (22:40) 1.8 0 0 0 1.8
03-04-2019 10.5 (16:30) 3.4 (23:59) 7 14.17 (16:30) 9.17 (16:00) 0 0 0 0 0
02-04-2019 16.8 (17:10) 4.3 (00:00) 10.5 8.33 (17:00) 5.56 (20:00) 0 0 0 0 0
01-04-2019 14.6 (14:10) 5.4 (00:00) 10 7.22 (16:30) 5.28 (01:50) 0.8 0 0 0.8 0
31-03-2019 17 (15:10) 2.9 (00:00) 10 12.22 (17:00) 8.33 (17:00) 0 0 0 0 0
30-03-2019 19.2 (16:20) 1.4 (00:00) 10.3 8.06 (19:30) 5.28 (19:30) 0 0 0 0 0
29-03-2019 17.5 (16:50) 1.5 (00:00) 9.5 9.44 (14:20) 5.83 (14:00) 0 0 0 0 0
28-03-2019 17.1 (16:30) -1.7 (-00:0) 7.7 5.56 (12:00) 3.61 (13:00) 0 0 0 0 0
27-03-2019 17 (17:30) -1 (-00:0) 8 8.89 (18:10) 5.56 (18:10) 0 0 0 0 0

Gráficas

Temp. máximas Temp. mínimas Temp. medias Precipitaciones Rachas de viento máximas Velocidades máximas media en intervalos de 10 minutos

Datos horarios

Fecha y hora oficial Temperatura (ºC) Velocidad del viento (km/h) Dirección del viento Racha (km/h) Dirección de racha Precipitación (mm) Presión (hPa) Tendencia (hPa) Humedad (%)
2019-04-25 23:00:00 7 8 Sudoeste 13 Sur 0 -- -- 84
2019-04-25 22:00:00 6.9 8 Sudoeste 23 Noroeste 0 -- -- 83
2019-04-25 21:00:00 7.6 13 Oeste 31 Oeste 0 -- -- 76
2019-04-25 20:00:00 7.9 21 Oeste 46 Noroeste 0 -- -- 73
2019-04-25 19:00:00 9.2 33 Oeste 62 Sudoeste 0 -- -- 64
2019-04-25 18:00:00 9.7 23 Sudoeste 49 Oeste 0 -- -- 64
2019-04-25 17:00:00 10.6 31 Oeste 51 Sudoeste 0 -- -- 60
2019-04-25 16:00:00 10.7 25 Sudoeste 45 Sudoeste 0 -- -- 62
2019-04-25 15:00:00 9.7 29 Sudoeste 50 Sudoeste 0 -- -- 68
2019-04-25 14:00:00 9.6 27 Sudoeste 46 Sudoeste 0 -- -- 66
2019-04-25 13:00:00 9.5 26 Sudoeste 45 Sudoeste 0 -- -- 70
2019-04-25 12:00:00 8.3 22 Sudoeste 36 Sudoeste 0 -- -- 71
2019-04-25 11:00:00 6.8 19 Sudoeste 30 Sudoeste 0 -- -- 81
2019-04-25 10:00:00 3.4 10 Oeste 30 Sudoeste 1.4 -- -- 93
2019-04-25 09:00:00 4.9 16 Sur 23 Sur 0.2 -- -- 93
2019-04-25 08:00:00 4.2 6 Sudoeste 15 Oeste 0.2 -- -- 94
2019-04-25 07:00:00 4.3 6 Oeste 29 Sudoeste 0.4 -- -- 91
2019-04-25 06:00:00 4.8 21 Sudoeste 28 Sudoeste 0 -- -- 89
2019-04-25 05:00:00 5 16 Sudoeste 37 Sudoeste 0.4 -- -- 89
2019-04-25 04:00:00 5.6 14 Sur 27 Sur 0 -- -- 88
2019-04-25 03:00:00 6 16 Sur 32 Sur 0 -- -- 88
2019-04-25 02:00:00 5.8 21 Sur 32 Sur 0 -- -- 88
2019-04-25 01:00:00 5.6 14 Sur 27 Sudoeste 0 -- -- 89
2019-04-25 00:00:00 6.4 17 Sur 31 Sudoeste 0 -- -- 89
2019-04-24 23:00:00 7.4 23 Sudoeste 40 Sudoeste 0.4 -- -- 89
2019-04-24 22:00:00 7.6 30 Sudoeste 45 Sudoeste 0.8 -- -- 90
2019-04-24 21:00:00 8.5 16 Sudoeste 39 Sudoeste 2.4 -- -- 93
2019-04-24 20:00:00 9.4 29 Sudoeste 56 Sur 0 -- -- 84
2019-04-24 19:00:00 9.9 34 Sudoeste 60 Sudoeste 0 -- -- 81
2019-04-24 18:00:00 9.3 31 Sudoeste 51 Sudoeste 0.4 -- -- 86
2019-04-24 17:00:00 10.9 31 Sudoeste 53 Sudoeste 0 -- -- 79
2019-04-24 16:00:00 9.5 35 Sudoeste 59 Sudoeste 0.4 -- -- 84
2019-04-24 15:00:00 10.6 38 Sur 57 Sur 0.6 -- -- 91
2019-04-24 14:00:00 11.9 32 Sudoeste 60 Sur 0 -- -- 82
2019-04-24 13:00:00 10.2 31 Sudoeste 47 Sur 1.2 -- -- 90
2019-04-24 12:00:00 10.2 31 Sur 45 Sur 0.2 -- -- 92
2019-04-24 11:00:00 8.8 32 Sur 41 Sur 0 -- -- 93
2019-04-24 10:00:00 6.5 21 Sur 40 Sur 0.4 -- -- 95
2019-04-24 09:00:00 5.6 26 Sur 53 Sur 1.2 -- -- 94
2019-04-24 08:00:00 5 35 Sur 55 Sur 0.6 -- -- 94
2019-04-24 07:00:00 3.9 27 Sur 40 Sur 0.6 -- -- 94
2019-04-24 06:00:00 3.3 23 Sur 41 Sur 0.8 -- -- 92
2019-04-24 05:00:00 3.8 17 Sur 33 Sur 0.2 -- -- 91
2019-04-24 04:00:00 3.9 19 Sur 33 Sur 0 -- -- 91
2019-04-24 03:00:00 4.2 24 Sur 37 Sur 0 -- -- 88
2019-04-24 02:00:00 3.9 19 Sur 27 Sur 0 -- -- 88
2019-04-24 01:00:00 3.1 15 Sur 22 Sur 0 -- -- 89
2019-04-24 00:00:00 3.2 11 Sur 18 Sur 0 -- -- 87
2019-04-23 23:00:00 3.8 10 Sur 19 Sudoeste 0 -- -- 85
2019-04-23 22:00:00 4.3 15 Sudoeste 31 Sudoeste 0 -- -- 80
2019-04-23 21:00:00 5.7 12 Oeste 31 Oeste 0 -- -- 69
2019-04-23 20:00:00 6.9 15 Oeste 39 Oeste 0 -- -- 70
2019-04-23 19:00:00 7.1 24 Oeste 38 Oeste 0 -- -- 71
2019-04-23 18:00:00 7.9 28 Oeste 40 Oeste 0 -- -- 70
2019-04-23 17:00:00 8.5 32 Oeste 45 Oeste 0 -- -- 71
2019-04-23 16:00:00 9.3 22 Oeste 45 Oeste 0 -- -- 66
2019-04-23 15:00:00 8.4 24 Oeste 42 Oeste 0.2 -- -- 71
2019-04-23 14:00:00 5.9 15 Oeste 44 Oeste 0.6 -- -- 87
2019-04-23 13:00:00 8.3 21 Sur 39 Sur 0 -- -- 76
2019-04-23 12:00:00 5.6 19 Sur 36 Sudoeste 0.2 -- -- 86
2019-04-23 11:00:00 6.4 17 Sur 32 Sur 0 -- -- 81
2019-04-23 10:00:00 6 17 Sur 32 Sur 0 -- -- 84
2019-04-23 09:00:00 4.2 18 Sur 28 Sudoeste 0 -- -- 91
2019-04-23 08:00:00 2.9 12 Sur 16 Sudoeste 0 -- -- 92
2019-04-23 07:00:00 4.2 10 Sudoeste 23 Sudoeste 1.2 -- -- 92
2019-04-23 06:00:00 5.4 6 Sudoeste 24 Sudoeste 0 -- -- 92
2019-04-23 05:00:00 5.6 15 Sudoeste 28 Oeste 0.2 -- -- 91
2019-04-23 04:00:00 5.9 9 Sudeste 17 Oeste 1.6 -- -- 93
2019-04-23 03:00:00 5.9 12 Oeste 25 Sudoeste 1 -- -- 91
2019-04-23 02:00:00 8.2 19 Sudoeste 39 Sur 0.4 -- -- 85
2019-04-23 01:00:00 9.5 24 Sur 39 Sur 0.2 -- -- 86
2019-04-23 00:00:00 10.6 17 Sur 40 Sur 0 -- -- 69
2019-04-22 23:00:00 11.5 18 Sur 42 Sudoeste 0 -- -- 66
2019-04-22 22:00:00 12.4 19 Sur 27 Sudoeste 0 -- -- 67
2019-04-22 21:00:00 12.7 14 Sudoeste 33 Sur 0 -- -- 69
2019-04-22 20:00:00 14.2 22 Sur 32 Sudoeste 0 -- -- 64
2019-04-22 19:00:00 15.1 20 Sur 32 Sudoeste 0 -- -- 60
2019-04-22 18:00:00 15.8 21 Sudoeste 33 Sudoeste 0 -- -- 53
2019-04-22 17:00:00 16.3 19 Sudoeste 32 Sudoeste 0 -- -- 51
2019-04-22 16:00:00 15.9 11 Sudoeste 30 Sur 0 -- -- 54
2019-04-22 15:00:00 15.1 14 Sur 27 Sur 0 -- -- 62
2019-04-22 14:00:00 15.7 15 Sur 24 Sur 0 -- -- 58
2019-04-22 13:00:00 14.7 6 Oeste 22 Sudoeste 0 -- -- 58
2019-04-22 12:00:00 14 7 Sur 15 Sur 0 -- -- 63
2019-04-22 11:00:00 12 7 Sur 15 Sur 0 -- -- 72
2019-04-22 10:00:00 9.7 8 Sur 14 Sur 0 -- -- 81
2019-04-22 09:00:00 6.1 9 Sur 14 Sur 0 -- -- 94
2019-04-22 08:00:00 4.5 8 Sur 14 Sur 0 -- -- 93
2019-04-22 07:00:00 5.1 10 Sur 13 Sur 0 -- -- 92
2019-04-22 06:00:00 6.2 9 Sur 12 Sur 0 -- -- 91
2019-04-22 05:00:00 6.9 6 Sur 11 Sur 0 -- -- 91
2019-04-22 04:00:00 8.1 6 Sur 8 Sur 0 -- -- 88
2019-04-22 03:00:00 9.6 0 Calma 6 Oeste 0 -- -- 82
2019-04-22 02:00:00 10.1 2 Oeste 3 Oeste 0 -- -- 80
2019-04-22 01:00:00 10.2 0 Calma 5 Norte 0 -- -- 81
2019-04-22 00:00:00 10.2 3 Norte 8 Norte 0 -- -- 78
2019-04-21 23:00:00 10 4 Noroeste 8 Noroeste 0 -- -- 78
2019-04-21 22:00:00 11 7 Noroeste 23 Noroeste 0 -- -- 74
2019-04-21 21:00:00 13.3 9 Nordeste 25 Norte 0 -- -- 60
2019-04-21 20:00:00 14.5 13 Este 25 Nordeste 0 -- -- 55
2019-04-21 19:00:00 15.8 17 Nordeste 35 Norte 0 -- -- 51
2019-04-21 18:00:00 16.1 17 Nordeste 42 Nordeste 0 -- -- 49
2019-04-21 17:00:00 16.1 18 Nordeste 47 Norte 0 -- -- 51
2019-04-21 16:00:00 15.4 18 Norte 39 Norte 0 -- -- 52
2019-04-21 15:00:00 15.5 21 Norte 42 Nordeste 0 -- -- 51
2019-04-21 14:00:00 14.4 23 Nordeste 41 Nordeste 0 -- -- 53
2019-04-21 13:00:00 13.4 23 Nordeste 35 Nordeste 0 -- -- 56
2019-04-21 12:00:00 12.7 23 Nordeste 35 Nordeste 0 -- -- 59
2019-04-21 11:00:00 11.3 16 Norte 31 Norte 0 -- -- 73
2019-04-21 10:00:00 8.7 10 Norte 16 Norte 0 -- -- 87
2019-04-21 09:00:00 6.2 2 Norte 5 Noroeste 0 -- -- 91
2019-04-21 08:00:00 5.7 0 Calma 6 Sudeste 0 -- -- 89
2019-04-21 07:00:00 6.8 2 Oeste 10 Oeste 0 -- -- 88
2019-04-21 06:00:00 7.1 5 Sudoeste 13 Sudoeste 0 -- -- 86
2019-04-21 05:00:00 7.5 10 Sudoeste 13 Sudoeste 0 -- -- 86
2019-04-21 04:00:00 8.5 10 Sudoeste 15 Sudoeste 0 -- -- 83
2019-04-21 03:00:00 9.6 7 Oeste 19 Sudoeste 0 -- -- 79
2019-04-21 02:00:00 10.6 12 Sudoeste 20 Sudoeste 0 -- -- 74
2019-04-21 01:00:00 12.6 5 Sudeste 35 Este 0 -- -- 60
2019-04-21 00:00:00 12.7 10 Este 21 Este 0 -- -- 56
2019-04-20 23:00:00 13.3 9 Sudeste 21 Nordeste 0 -- -- 59
2019-04-20 22:00:00 15.7 10 Nordeste 19 Nordeste 0 -- -- 51
2019-04-20 21:00:00 16.9 12 Nordeste 27 Nordeste 0 -- -- 50
2019-04-20 20:00:00 18.9 17 Nordeste 36 Norte 0 -- -- 46
2019-04-20 19:00:00 19.7 21 Nordeste 40 Nordeste 0 -- -- 43
2019-04-20 18:00:00 20 24 Norte 48 Nordeste 0 -- -- 43
2019-04-20 17:00:00 20.4 24 Nordeste 43 Nordeste 0 -- -- 42
2019-04-20 16:00:00 19.9 24 Nordeste 41 Nordeste 0 -- -- 42
2019-04-20 15:00:00 18.9 21 Nordeste 45 Nordeste 0 -- -- 49
2019-04-20 14:00:00 17.5 27 Nordeste 48 Norte 0 -- -- 52
2019-04-20 13:00:00 15.9 24 Nordeste 41 Nordeste 0 -- -- 60
2019-04-20 12:00:00 13.4 16 Nordeste 37 Nordeste 0 -- -- 68
2019-04-20 11:00:00 11.8 21 Nordeste 45 Nordeste 0 -- -- 71
2019-04-20 10:00:00 11.2 26 Nordeste 46 Nordeste 0 -- -- 68
2019-04-20 09:00:00 8.7 18 Nordeste 32 Norte 0 -- -- 80
2019-04-20 08:00:00 8 17 Norte 28 Norte 0 -- -- 84
2019-04-20 07:00:00 8.5 15 Norte 22 Norte 0 -- -- 81
2019-04-20 06:00:00 8.9 7 Norte 27 Nordeste 0 -- -- 80
2019-04-20 05:00:00 9.3 17 Norte 27 Nordeste 0 -- -- 84
2019-04-20 04:00:00 10 12 Nordeste 26 Norte 0 -- -- 84
2019-04-20 03:00:00 9.3 2 Sudoeste 10 Oeste 0 -- -- 83
2019-04-20 02:00:00 10.5 9 Este 23 Este 0 -- -- 79
2019-04-20 01:00:00 10.8 15 Nordeste 29 Nordeste 0 -- -- 83
2019-04-20 00:00:00 11.3 10 Nordeste 28 Nordeste 0 -- -- 82
2019-04-19 23:00:00 11.3 15 Nordeste 32 Nordeste 0 -- -- 79
2019-04-19 22:00:00 11.5 17 Nordeste 33 Nordeste 0 -- -- 79
2019-04-19 21:00:00 12.7 15 Nordeste 28 Norte 0 -- -- 72
2019-04-19 20:00:00 13.6 10 Nordeste 24 Este 0 -- -- 65
2019-04-19 19:00:00 14.1 15 Nordeste 30 Nordeste 0 -- -- 62
2019-04-19 18:00:00 14.6 18 Este 30 Nordeste 0.2 -- -- 63
2019-04-19 17:00:00 13.8 10 Este 18 Sudeste 0 -- -- 77
2019-04-19 16:00:00 11.6 17 Este 29 Este 1.6 -- -- 87
2019-04-19 15:00:00 12.3 14 Norte 26 Nordeste 0.8 -- -- 76
2019-04-19 14:00:00 11.9 17 Norte 25 Norte 0 -- -- 76
2019-04-19 13:00:00 11.3 11 Norte 17 Norte 0 -- -- 80
2019-04-19 12:00:00 11.2 6 Nordeste 12 Nordeste 0 -- -- 78
2019-04-19 11:00:00 10.2 8 Sur 17 Sur 0 -- -- 83
2019-04-19 10:00:00 8.6 8 Sudeste 15 Sudeste 0 -- -- 90
2019-04-19 09:00:00 7.4 4 Sudeste 7 Sur 0 -- -- 97
2019-04-19 08:00:00 6.9 4 Sur 7 Sudeste 0 -- -- 97
2019-04-19 07:00:00 7 4 Sudeste 6 Sur 0 -- -- 97
2019-04-19 06:00:00 7.1 4 Sudeste 5 Sudeste 0.2 -- -- 97
2019-04-19 05:00:00 7.2 3 Sur 4 Sur 0 -- -- 97
2019-04-19 04:00:00 7.3 3 Sudoeste 11 Noroeste 0.6 -- -- 97
2019-04-19 03:00:00 7.6 9 Noroeste 13 Noroeste 0.6 -- -- 96
2019-04-19 02:00:00 7.8 9 Norte 12 Norte 0.2 -- -- 96
2019-04-19 01:00:00 8 8 Norte 20 Norte 0 -- -- 94
2019-04-19 00:00:00 8.2 6 Sur 13 Sudoeste 0.4 -- -- 92
2019-04-18 23:00:00 8.6 5 Noroeste 10 Este 0.2 -- -- 90
2019-04-18 22:00:00 9.5 6 Nordeste 16 Nordeste 0 -- -- 89
2019-04-18 21:00:00 10.1 5 Noroeste 12 Oeste 0 -- -- 84
2019-04-18 20:00:00 11.6 3 Sudoeste 12 Sudeste 0 -- -- 75
2019-04-18 19:00:00 11.2 6 Sur 11 Sudoeste 0 -- -- 77
2019-04-18 18:00:00 10 8 Sudoeste 11 Sudoeste 1 -- -- 86
2019-04-18 17:00:00 9.9 8 Norte 25 Norte 0.2 -- -- 79
2019-04-18 16:00:00 12.2 8 Este 16 Nordeste 0.2 -- -- 74
2019-04-18 15:00:00 10.7 8 Sur 18 Sur 0.6 -- -- 82
2019-04-18 14:00:00 11.1 7 Oeste 17 Sudoeste 0 -- -- 77
2019-04-18 13:00:00 10.6 9 Sudoeste 17 Sudoeste 0.4 -- -- 84
2019-04-18 12:00:00 10.3 12 Sur 22 Sur 0 -- -- 80
2019-04-18 11:00:00 9.9 10 Sur 19 Sur 0.2 -- -- 87
2019-04-18 10:00:00 9 13 Sur 19 Sur 0 -- -- 93
2019-04-18 09:00:00 7.8 5 Sur 9 Sur 0 -- -- 97
2019-04-18 08:00:00 7.2 3 Sur 9 Sur 0.4 -- -- 96
2019-04-18 07:00:00 6.9 8 Sur 14 Sudeste 0 -- -- 95
2019-04-18 06:00:00 7.5 10 Sur 16 Sudeste 0.2 -- -- 96
2019-04-18 05:00:00 7.5 10 Sur 22 Sur 0.4 -- -- 96
2019-04-18 04:00:00 7.3 10 Sur 22 Sur 0.2 -- -- 95
2019-04-18 03:00:00 7.8 15 Sur 27 Sur 0.2 -- -- 95
2019-04-18 02:00:00 8 15 Sur 27 Sur 0 -- -- 95
2019-04-18 01:00:00 8.1 13 Sur 26 Sur 1 -- -- 95
2019-04-18 00:00:00 8.1 19 Sur 30 Sur 0.6 -- -- 94
2019-04-17 23:00:00 8.2 13 Sur 24 Sur 0.2 -- -- 94
2019-04-17 22:00:00 8.3 17 Sur 28 Sur 1.4 -- -- 94
2019-04-17 21:00:00 8.5 12 Sudeste 33 Sur 0.6 -- -- 93
2019-04-17 20:00:00 8.8 13 Sur 22 Sur 1.8 -- -- 93
2019-04-17 19:00:00 8.9 14 Sur 37 Sudoeste 6.2 -- -- 93
2019-04-17 18:00:00 10.9 23 Sudoeste 63 Sur 2 -- -- 89
2019-04-17 17:00:00 15.2 32 Sur 67 Sudeste 0 -- -- 59
2019-04-17 16:00:00 16 36 Sudeste 71 Sudeste 0 -- -- 55
2019-04-17 15:00:00 14.7 32 Sudeste 59 Sudeste 0 -- -- 62
2019-04-17 14:00:00 14.2 29 Sudeste 56 Sudeste 0 -- -- 62
2019-04-17 13:00:00 12.5 24 Sur 45 Sur 0 -- -- 64
2019-04-17 12:00:00 11.7 24 Sur 53 Sudeste 0 -- -- 69
2019-04-17 11:00:00 10.8 27 Sur 48 Sur 0 -- -- 71
2019-04-17 10:00:00 10.5 31 Sur 54 Sudeste 0 -- -- 72
2019-04-17 09:00:00 10 35 Sur 53 Sur 0 -- -- 73
2019-04-17 08:00:00 9.7 30 Sur 49 Sur 0 -- -- 73
2019-04-17 07:00:00 10 28 Sur 44 Sur 0 -- -- 69
2019-04-17 06:00:00 10.4 23 Sur 42 Sudeste 0 -- -- 67
2019-04-17 05:00:00 10.8 17 Sur 35 Sudeste 0 -- -- 62
2019-04-17 04:00:00 11.3 12 Sudeste 28 Sur 0 -- -- 59
2019-04-17 03:00:00 12 12 Sudeste 30 Sur 0 -- -- 58
2019-04-17 02:00:00 13.4 15 Sur 38 Sur 0 -- -- 55
2019-04-17 01:00:00 15.5 25 Sudeste 55 Sudeste 0 -- -- 47
2019-04-17 00:00:00 13.9 11 Sudeste 21 Sur 0 -- -- 53
2019-04-16 23:00:00 12.5 6 Sudeste 13 Sudeste 0 -- -- 58
2019-04-16 22:00:00 12.6 8 Este 16 Sudeste 0 -- -- 59
2019-04-16 21:00:00 14.4 12 Sudeste 27 Sur 0 -- -- 56
2019-04-16 20:00:00 16 13 Sudeste 27 Sudeste 0 -- -- 52
2019-04-16 19:00:00 17 20 Sudeste 35 Sur 0 -- -- 49
2019-04-16 18:00:00 17.1 28 Sur 39 Sur 0 -- -- 41
2019-04-16 17:00:00 16.7 23 Sur 41 Sur 0 -- -- 49
2019-04-16 16:00:00 16.2 19 Sur 38 Sudeste 0 -- -- 48
2019-04-16 15:00:00 15.4 21 Sur 37 Sudeste 0 -- -- 52
2019-04-16 14:00:00 14.6 22 Sudeste 39 Sur 0 -- -- 54
2019-04-16 13:00:00 13.9 20 Sur 34 Sur 0 -- -- 62
2019-04-16 12:00:00 12.7 19 Sur 33 Sur 0 -- -- 67
2019-04-16 11:00:00 9.1 7 Sudeste 13 Sur 0 -- -- 99
2019-04-16 10:00:00 5.2 3 Sur 12 Sur 0 -- -- 99
2019-04-16 09:00:00 1.1 9 Sur 14 Sur 0 -- -- 98
2019-04-16 08:00:00 0 11 Sur 14 Sur 0 -- -- 97
2019-04-16 07:00:00 0.3 12 Sur 17 Sur 0 -- -- 97
2019-04-16 06:00:00 0.8 9 Sur 14 Sudeste 0 -- -- 96
2019-04-16 05:00:00 2.4 4 Sur 13 Sudeste 0 -- -- 96
2019-04-16 04:00:00 3.1 6 Sur 12 Sudeste 0 -- -- 94
2019-04-16 03:00:00 4.7 4 Oeste 10 Sur 0 -- -- 93
2019-04-16 02:00:00 4.7 7 Sur 11 Este 0 -- -- 92
2019-04-16 01:00:00 6.7 4 Norte 11 Noroeste 0 -- -- 90
2019-04-16 00:00:00 7.4 3 Norte 10 Este 0 -- -- 89
2019-04-15 23:00:00 8.2 3 Norte 14 Noroeste 0 -- -- 88
2019-04-15 22:00:00 8.9 13 Noroeste 26 Oeste 0 -- -- 86
2019-04-15 21:00:00 10.3 16 Noroeste 23 Oeste 0 -- -- 81
2019-04-15 20:00:00 11.2 13 Noroeste 28 Noroeste 0 -- -- 84
2019-04-15 19:00:00 10.8 12 Norte 48 Noroeste 3.6 -- -- 89
2019-04-15 18:00:00 12.8 3 Sudoeste 13 Sudoeste 0.2 -- -- 81
2019-04-15 17:00:00 11.6 6 Sudeste 17 Sudeste 0.6 -- -- 86
2019-04-15 16:00:00 9.8 7 Sur 35 Oeste 1.2 -- -- 89
2019-04-15 15:00:00 11.4 25 Oeste 42 Noroeste 0 -- -- 72
2019-04-15 14:00:00 17.3 27 Sudoeste 46 Sur 0 -- -- 44
2019-04-15 13:00:00 16.5 27 Sudoeste 41 Sur 0 -- -- 51
2019-04-15 12:00:00 15.5 28 Sur 55 Sur 0 -- -- 63
2019-04-15 11:00:00 14.3 24 Sur 40 Sur 0 -- -- 82
2019-04-15 10:00:00 13.8 20 Sur 38 Sur 0 -- -- 83
2019-04-15 09:00:00 13.8 19 Sur 31 Sur 0 -- -- 81
2019-04-15 08:00:00 12.9 14 Sur 23 Sur 0 -- -- 85
2019-04-15 07:00:00 13.5 14 Sudeste 22 Sur 0 -- -- 84
2019-04-15 06:00:00 13.4 14 Sur 23 Sur 0 -- -- 86
2019-04-15 05:00:00 13.4 12 Sur 20 Sur 0 -- -- 86
2019-04-15 04:00:00 13.7 10 Sudeste 18 Sudeste 0 -- -- 85
2019-04-15 03:00:00 12.5 3 Sur 14 Sur 0 -- -- 85
2019-04-15 02:00:00 12.3 12 Sur 16 Sur 0 -- -- 89
2019-04-15 01:00:00 11.7 4 Sur 11 Sur 0 -- -- 85
2019-04-15 00:00:00 12.4 10 Sur 15 Sur 0 -- -- 85
2019-04-14 23:00:00 13.5 11 Sur 14 Sur 0 -- -- 82
2019-04-14 22:00:00 15.5 6 Sur 18 Sur 0 -- -- 76
2019-04-14 21:00:00 16.5 9 Sur 19 Sur 0 -- -- 70
2019-04-14 20:00:00 18 13 Sur 18 Sur 0 -- -- 66
2019-04-14 19:00:00 18.7 7 Sur 16 Sur 0 -- -- 61
2019-04-14 18:00:00 18.6 9 Sudoeste 21 Sur 0 -- -- 63
2019-04-14 17:00:00 18.3 13 Sur 20 Sur 0 -- -- 63
2019-04-14 16:00:00 17.9 9 Sur 18 Sudoeste 0 -- -- 65
2019-04-14 15:00:00 17.6 9 Sudoeste 15 Sur 0 -- -- 65
2019-04-14 14:00:00 17.5 4 Sudoeste 12 Sudoeste 0 -- -- 68
2019-04-14 13:00:00 16.8 6 Sudeste 11 Sudeste 0 -- -- 71
2019-04-14 12:00:00 14.5 3 Norte 8 Sur 0 -- -- 79
2019-04-14 11:00:00 13.1 3 Sur 6 Sur 0 -- -- 86
2019-04-14 10:00:00 11.8 5 Sudeste 9 Sur 0 -- -- 90
2019-04-14 09:00:00 10.9 0 Calma 8 Sur 0 -- -- 94
2019-04-14 08:00:00 9.9 2 Nordeste 4 Este 0 -- -- 94
2019-04-14 07:00:00 10 3 Este 8 Este 0 -- -- 92
2019-04-14 06:00:00 10.1 2 Sur 8 Sudeste 0 -- -- 92
2019-04-14 05:00:00 11 4 Sur 6 Sudeste 0 -- -- 90
2019-04-14 04:00:00 11.3 4 Oeste 9 Norte 0 -- -- 92
2019-04-14 03:00:00 11.8 5 Norte 9 Nordeste 0 -- -- 91
2019-04-14 02:00:00 12 5 Nordeste 8 Nordeste 0 -- -- 88
2019-04-14 01:00:00 12.1 3 Nordeste 6 Norte 0 -- -- 80
2019-04-14 00:00:00 12.2 0 Calma 3 Nordeste 0 -- -- 77
2019-04-13 23:00:00 12.7 2 Nordeste 5 Norte 0 -- -- 73
2019-04-13 22:00:00 13.6 3 Nordeste 9 Noroeste 0 -- -- 68
2019-04-13 21:00:00 14.9 5 Noroeste 24 Sudoeste 0 -- -- 60
2019-04-13 20:00:00 16.9 15 Oeste 23 Sudoeste 0 -- -- 49
2019-04-13 19:00:00 17.7 16 Sudoeste 31 Oeste 0 -- -- 47
2019-04-13 18:00:00 18.8 9 Oeste 21 Sudoeste 0 -- -- 42
2019-04-13 17:00:00 19.3 9 Sudoeste 22 Sudoeste 0 -- -- 41
2019-04-13 16:00:00 19.2 9 Sudoeste 22 Sur 0 -- -- 42
2019-04-13 15:00:00 19 7 Noroeste 19 Sudoeste 0 -- -- 40
2019-04-13 14:00:00 17.7 7 Sudoeste 13 Sudoeste 0 -- -- 38
2019-04-13 13:00:00 16.7 6 Sudoeste 17 Nordeste 0 -- -- 41
2019-04-13 12:00:00 15.3 3 Sudoeste 9 Este 0 -- -- 51
2019-04-13 11:00:00 13.5 4 Nordeste 8 Nordeste 0 -- -- 64
2019-04-13 10:00:00 9.3 4 Sur 10 Sur 0 -- -- 84
2019-04-13 09:00:00 5.5 8 Sur 10 Sudeste 0 -- -- 89
2019-04-13 08:00:00 4.6 9 Sur 12 Sur 0 -- -- 88
2019-04-13 07:00:00 3.9 10 Sur 13 Sudeste 0 -- -- 87
2019-04-13 06:00:00 4.2 8 Sur 11 Sur 0 -- -- 85
2019-04-13 05:00:00 4.7 8 Sur 13 Sur 0 -- -- 85
2019-04-13 04:00:00 4.3 10 Sur 14 Sur 0 -- -- 84
2019-04-13 03:00:00 5.7 9 Sur 10 Sur 0 -- -- 78
2019-04-13 02:00:00 8.5 4 Norte 8 Noroeste 0 -- -- 74
2019-04-13 01:00:00 7.7 3 Oeste 15 Oeste 0 -- -- 62
2019-04-13 00:00:00 7.8 5 Sur 10 Este 0 -- -- 65
2019-04-12 23:00:00 10.1 9 Este 12 Este 0 -- -- 55
2019-04-12 22:00:00 11.1 7 Nordeste 10 Nordeste 0 -- -- 53
2019-04-12 21:00:00 13.2 5 Norte 15 Norte 0 -- -- 47
2019-04-12 20:00:00 15.5 8 Noroeste 18 Norte 0 -- -- 42
2019-04-12 19:00:00 16 8 Norte 22 Noroeste 0 -- -- 41
2019-04-12 18:00:00 16.1 10 Norte 22 Noroeste 0 -- -- 43
2019-04-12 17:00:00 15.9 8 Noroeste 23 Nordeste 0 -- -- 42
2019-04-12 16:00:00 15.3 10 Norte 24 Este 0 -- -- 46
2019-04-12 15:00:00 14.4 12 Nordeste 22 Nordeste 0 -- -- 49
2019-04-12 14:00:00 13.6 12 Norte 22 Nordeste 0 -- -- 48
2019-04-12 13:00:00 12.8 8 Nordeste 14 Norte 0 -- -- 50
2019-04-12 12:00:00 10.9 4 Norte 11 Noroeste 0 -- -- 71
2019-04-12 11:00:00 8.9 6 Norte 9 Norte 0 -- -- 81
2019-04-12 10:00:00 5.3 0 Calma 5 Sudeste 0 -- -- 96
2019-04-12 09:00:00 1 5 Sur 12 Sur 0 -- -- 94
2019-04-12 08:00:00 -0.2 10 Sur 14 Sur 0 -- -- 93
2019-04-12 07:00:00 -0.1 11 Sur 15 Sur 0 -- -- 91
2019-04-12 06:00:00 0.8 9 Sudeste 13 Sur 0 -- -- 89
2019-04-12 05:00:00 0.7 10 Sur 14 Sudeste 0 -- -- 90
2019-04-12 04:00:00 2.7 6 Sur 10 Sur 0 -- -- 83
2019-04-12 03:00:00 4.9 6 Noroeste 8 Noroeste 0 -- -- 85
2019-04-12 02:00:00 3.7 4 Oeste 12 Sur 0 -- -- 79
2019-04-12 01:00:00 4.4 5 Sur 11 Sur 0 -- -- 77
2019-04-12 00:00:00 5.9 5 Sudeste 8 Nordeste 0 -- -- 69
2019-04-11 23:00:00 7.6 3 Nordeste 10 Nordeste 0 -- -- 61
2019-04-11 22:00:00 8.6 0 Calma 9 Norte 0 -- -- 60
2019-04-11 21:00:00 10.5 5 Norte 17 Norte 0 -- -- 54
2019-04-11 20:00:00 12.5 12 Norte 25 Nordeste 0 -- -- 47
2019-04-11 19:00:00 12.3 10 Norte 26 Nordeste 0 -- -- 47
2019-04-11 18:00:00 13.5 12 Norte 28 Nordeste 0 -- -- 45
2019-04-11 17:00:00 12.6 15 Norte 31 Nordeste 0 -- -- 50
2019-04-11 16:00:00 12.4 13 Nordeste 28 Norte 0 -- -- 49
2019-04-11 15:00:00 12.3 13 Norte 28 Norte 0 -- -- 54
2019-04-11 14:00:00 11.2 15 Norte 26 Norte 0 -- -- 59
2019-04-11 13:00:00 9.7 12 Norte 27 Norte 0 -- -- 70
2019-04-11 12:00:00 8.1 10 Nordeste 16 Nordeste 0 -- -- 83
2019-04-11 11:00:00 6.7 9 Noroeste 14 Norte 0 -- -- 91
2019-04-11 10:00:00 5.1 2 Noroeste 6 Norte 0 -- -- 96
2019-04-11 09:00:00 3.7 3 Noroeste 5 Sur 0 -- -- 96
2019-04-11 08:00:00 2.3 4 Sur 5 Sur 0 -- -- 95
2019-04-11 07:00:00 2.4 3 Noroeste 8 Norte 0 -- -- 94
2019-04-11 06:00:00 3 4 Noroeste 6 Noroeste 0 -- -- 93
2019-04-11 05:00:00 3.9 3 Norte 12 Noroeste 0 -- -- 93
2019-04-11 04:00:00 4.3 11 Noroeste 15 Noroeste 0 -- -- 91
2019-04-11 03:00:00 5.2 8 Noroeste 16 Noroeste 0 -- -- 90
2019-04-11 02:00:00 5.7 11 Noroeste 18 Oeste 0 -- -- 87
2019-04-11 01:00:00 5.8 8 Noroeste 13 Norte 0 -- -- 85
2019-04-11 00:00:00 6.1 4 Nordeste 8 Norte 0 -- -- 83
2019-04-10 23:00:00 6.5 5 Norte 21 Nordeste 0 -- -- 79
2019-04-10 22:00:00 7.8 10 Este 34 Noroeste 0 -- -- 74
2019-04-10 21:00:00 10.3 26 Noroeste 41 Noroeste 0 -- -- 66
2019-04-10 20:00:00 11.2 22 Noroeste 36 Norte 0 -- -- 59
2019-04-10 19:00:00 11.3 26 Noroeste 38 Noroeste 0 -- -- 58
2019-04-10 18:00:00 12.3 25 Noroeste 35 Noroeste 0 -- -- 52
2019-04-10 17:00:00 12.9 22 Noroeste 33 Noroeste 0 -- -- 54
2019-04-10 16:00:00 11.8 24 Noroeste 36 Norte 0 -- -- 57
2019-04-10 15:00:00 10.4 18 Noroeste 33 Noroeste 0 -- -- 65
2019-04-10 14:00:00 9.9 21 Noroeste 37 Noroeste 0 -- -- 66
2019-04-10 13:00:00 10 23 Noroeste 39 Noroeste 0 -- -- 66
2019-04-10 12:00:00 8.7 21 Noroeste 36 Noroeste 0 -- -- 74
2019-04-10 11:00:00 7.7 23 Noroeste 32 Noroeste 0 -- -- 80
2019-04-10 10:00:00 6 13 Noroeste 23 Oeste 0.2 -- -- 90
2019-04-10 09:00:00 5.2 13 Oeste 22 Oeste 0 -- -- 90
2019-04-10 08:00:00 5 13 Oeste 25 Oeste 0 -- -- 88
2019-04-10 07:00:00 5.2 13 Oeste 26 Oeste 0 -- -- 87
2019-04-10 06:00:00 5 14 Oeste 23 Oeste 0 -- -- 89
2019-04-10 05:00:00 5.2 10 Oeste 20 Oeste 0 -- -- 88
2019-04-10 04:00:00 5.4 16 Noroeste 27 Oeste 0 -- -- 87
2019-04-10 03:00:00 5.7 17 Noroeste 26 Noroeste 0 -- -- 88
2019-04-10 02:00:00 5.7 18 Noroeste 25 Oeste 0 -- -- 87
2019-04-10 01:00:00 6 18 Noroeste 29 Oeste 0 -- -- 87
2019-04-10 00:00:00 5.6 16 Noroeste 36 Noroeste 0 -- -- 87
2019-04-09 23:00:00 6 19 Noroeste 35 Oeste 0 -- -- 83
2019-04-09 22:00:00 7 15 Oeste 37 Oeste 0 -- -- 84
2019-04-09 21:00:00 7.2 21 Oeste 37 Oeste 0 -- -- 83
2019-04-09 20:00:00 8.3 22 Oeste 37 Oeste 0 -- -- 73
2019-04-09 19:00:00 9.7 27 Oeste 43 Oeste 0 -- -- 68
2019-04-09 18:00:00 9.8 16 Noroeste 41 Oeste 0 -- -- 67
2019-04-09 17:00:00 11 26 Oeste 39 Oeste 0 -- -- 57
2019-04-09 16:00:00 9.8 18 Oeste 56 Noroeste 0 -- -- 74
2019-04-09 15:00:00 11.3 27 Oeste 40 Noroeste 0 -- -- 58
2019-04-09 14:00:00 8.6 19 Oeste 44 Noroeste 0.2 -- -- 77
2019-04-09 13:00:00 7.9 17 Oeste 27 Oeste 0 -- -- 82
2019-04-09 12:00:00 5.9 15 Oeste 31 Oeste 0.2 -- -- 90
2019-04-09 11:00:00 4.7 19 Sudoeste 40 Sudoeste 1.4 -- -- 91
2019-04-09 10:00:00 6.1 18 Sudoeste 26 Sur 0 -- -- 89
2019-04-09 09:00:00 5.3 13 Sur 23 Sur 0 -- -- 91
2019-04-09 08:00:00 5 14 Sur 21 Sur 0 -- -- 93
2019-04-09 07:00:00 5.2 12 Sur 21 Sur 0 -- -- 93
2019-04-09 06:00:00 5.4 15 Sur 25 Sur 0 -- -- 93
2019-04-09 05:00:00 4.7 11 Sur 28 Sur 0 -- -- 92
2019-04-09 04:00:00 4.5 18 Sur 23 Sur 0 -- -- 93
2019-04-09 03:00:00 3.8 13 Sur 20 Sur 0 -- -- 92
2019-04-09 02:00:00 3.8 13 Sur 19 Sur 0 -- -- 90
2019-04-09 01:00:00 3.9 11 Sur 19 Sudoeste 0 -- -- 88
2019-04-09 00:00:00 4.9 13 Sur 17 Sudoeste 0 -- -- 86
2019-04-08 23:00:00 5.3 11 Sur 13 Sur 0 -- -- 86
2019-04-08 22:00:00 6.8 7 Sudoeste 10 Sudoeste 0 -- -- 86
2019-04-08 21:00:00 7.9 8 Sudoeste 15 Noroeste 0 -- -- 82
2019-04-08 20:00:00 8.4 8 Sur 17 Sur 0 -- -- 85
2019-04-08 19:00:00 9.1 10 Sudoeste 17 Sudoeste 0.2 -- -- 83
2019-04-08 18:00:00 7 15 Oeste 34 Oeste 1.6 -- -- 88
2019-04-08 17:00:00 10.5 19 Noroeste 38 Noroeste 0 -- -- 67
2019-04-08 16:00:00 12.6 12 Sudoeste 29 Noroeste 0 -- -- 50
2019-04-08 15:00:00 12.6 13 Sudoeste 30 Oeste 0 -- -- 48
2019-04-08 14:00:00 12.3 16 Oeste 27 Noroeste 0 -- -- 51
2019-04-08 13:00:00 10.6 13 Oeste 26 Oeste 0 -- -- 56
2019-04-08 12:00:00 9.4 14 Oeste 27 Noroeste 0 -- -- 75
2019-04-08 11:00:00 7.7 14 Oeste 21 Noroeste 0 -- -- 86
2019-04-08 10:00:00 6.7 13 Oeste 20 Oeste 0 -- -- 90
2019-04-08 09:00:00 5.6 9 Oeste 18 Oeste 0 -- -- 88
2019-04-08 08:00:00 5.7 14 Oeste 22 Oeste 0 -- -- 89
2019-04-08 07:00:00 6.7 13 Oeste 26 Oeste 0.6 -- -- 93
2019-04-08 06:00:00 7.7 16 Noroeste 28 Noroeste 0.4 -- -- 92
2019-04-08 05:00:00 8.7 9 Oeste 18 Noroeste 0 -- -- 93
2019-04-08 04:00:00 8.9 15 Sudoeste 32 Sur 0.2 -- -- 94
2019-04-08 03:00:00 8.7 18 Sur 37 Sur 0 -- -- 91
2019-04-08 02:00:00 8.7 27 Sur 36 Sur 0.2 -- -- 89
2019-04-08 01:00:00 8.8 23 Sur 31 Sur 0 -- -- 89
2019-04-08 00:00:00 8.5 21 Sur 32 Sur 0 -- -- 88
2019-04-07 23:00:00 8.5 18 Sur 26 Sur 0 -- -- 89
2019-04-07 22:00:00 8.3 11 Sur 29 Sur 0 -- -- 93
2019-04-07 21:00:00 8.7 18 Sur 27 Sur 0 -- -- 90
2019-04-07 20:00:00 8.6 19 Sur 33 Sur 0 -- -- 88
2019-04-07 19:00:00 8.9 21 Sur 42 Sur 0 -- -- 86
2019-04-07 18:00:00 8.5 22 Sur 37 Sur 0 -- -- 87
2019-04-07 17:00:00 8.3 24 Sur 39 Sur 0 -- -- 86
2019-04-07 16:00:00 7.9 14 Sur 30 Sur 0 -- -- 84
2019-04-07 15:00:00 8.7 19 Sur 32 Sur 0 -- -- 78
2019-04-07 14:00:00 8.1 19 Sur 28 Sur 0 -- -- 81
2019-04-07 13:00:00 7.8 14 Sur 21 Sur 0 -- -- 78
2019-04-07 12:00:00 6.5 9 Sur 14 Sur 0 -- -- 86
2019-04-07 11:00:00 5.3 5 Sudeste 11 Sur 0 -- -- 92
2019-04-07 10:00:00 4.4 6 Sur 13 Sur 0.4 -- -- 94
2019-04-07 09:00:00 3.9 8 Sudoeste 13 Oeste 0.6 -- -- 93
2019-04-07 08:00:00 3.9 9 Oeste 14 Sur 0.2 -- -- 91
2019-04-07 07:00:00 4 8 Sur 10 Sur 0 -- -- 91
2019-04-07 06:00:00 3.9 5 Sudoeste 10 Sudoeste 0 -- -- 91
2019-04-07 05:00:00 3.8 5 Sudoeste 10 Oeste 0 -- -- 92
2019-04-07 04:00:00 3.6 8 Oeste 15 Sudoeste 0.2 -- -- 92
2019-04-07 03:00:00 3.7 10 Oeste 17 Sudoeste 0 -- -- 91
2019-04-07 02:00:00 3.6 9 Oeste 18 Oeste 0 -- -- 92
2019-04-07 01:00:00 3.8 12 Sudoeste 19 Sudoeste 0 -- -- 90
2019-04-07 00:00:00 3.8 10 Sudoeste 19 Sudoeste 0 -- -- 90
2019-04-06 23:00:00 4 11 Sudoeste 20 Oeste 0 -- -- 87
2019-04-06 22:00:00 4 11 Oeste 21 Sudoeste 0 -- -- 84
2019-04-06 21:00:00 4.5 18 Oeste 31 Noroeste 0 -- -- 78
2019-04-06 20:00:00 6.2 24 Oeste 37 Noroeste 0 -- -- 73
2019-04-06 19:00:00 6.3 27 Oeste 46 Oeste 0 -- -- 71
2019-04-06 18:00:00 5.6 26 Oeste 44 Sudoeste 0 -- -- 81
2019-04-06 17:00:00 6.9 33 Sudoeste 50 Sudoeste 0 -- -- 72
2019-04-06 16:00:00 8.4 31 Oeste 50 Noroeste 0 -- -- 61
2019-04-06 15:00:00 7.2 24 Oeste 42 Sudoeste 0.2 -- -- 78
2019-04-06 14:00:00 5.3 22 Oeste 44 Sudoeste 0 -- -- 80
2019-04-06 13:00:00 5.9 34 Sudoeste 51 Sudoeste 0 -- -- 79
2019-04-06 12:00:00 4.9 22 Sudoeste 36 Sudoeste 0 -- -- 83
2019-04-06 11:00:00 3.4 20 Sur 29 Sur 0 -- -- 93
2019-04-06 10:00:00 1.2 15 Sur 40 Sudoeste 1.2 -- -- 95
2019-04-06 09:00:00 0.7 17 Sur 22 Sur 1 -- -- 95
2019-04-06 08:00:00 0.9 15 Oeste 28 Oeste 2 -- -- 92
2019-04-06 07:00:00 2.8 17 Sur 28 Sur 0 -- -- 92
2019-04-06 06:00:00 2.7 18 Sur 26 Sur 0 -- -- 93
2019-04-06 05:00:00 1.9 16 Sur 24 Sur 0 -- -- 92
2019-04-06 04:00:00 2.1 17 Sur 23 Sur 0 -- -- 91
2019-04-06 03:00:00 2.2 12 Sur 15 Sur 0 -- -- 91
2019-04-06 02:00:00 2.6 8 Sur 15 Sur 0 -- -- 89
2019-04-06 01:00:00 2.8 7 Sur 13 Sur 0 -- -- 89
2019-04-06 00:00:00 2.4 8 Sudoeste 14 Sudoeste 0 -- -- 90
2019-04-05 23:00:00 1.9 3 Sur 17 Noroeste 0 -- -- 90
2019-04-05 22:00:00 2 8 Oeste 26 Oeste 0 -- -- 88
2019-04-05 21:00:00 2.9 19 Oeste 31 Oeste 0.2 -- -- 86
2019-04-05 20:00:00 4.7 18 Oeste 36 Oeste 0 -- -- 82
2019-04-05 19:00:00 4 10 Norte 28 Norte 0.4 -- -- 91
2019-04-05 18:00:00 7 24 Sudoeste 36 Sudoeste 0 -- -- 69
2019-04-05 17:00:00 7.9 12 Oeste 35 Sudoeste 0 -- -- 58
2019-04-05 16:00:00 7.4 18 Oeste 29 Oeste 0 -- -- 64
2019-04-05 15:00:00 5.9 17 Oeste 40 Sudoeste 1 -- -- 78
2019-04-05 14:00:00 4.3 10 Sudoeste 20 Sudoeste 0.4 -- -- 87
2019-04-05 13:00:00 1.2 18 Oeste 31 Oeste 0.6 -- -- 89
2019-04-05 12:00:00 4.8 10 Oeste 19 Sudoeste 0 -- -- 76
2019-04-05 11:00:00 3.5 12 Sudoeste 22 Sudoeste 0.2 -- -- 87
2019-04-05 10:00:00 3.1 2 Oeste 10 Oeste 0 -- -- 87
2019-04-05 09:00:00 2.5 4 Oeste 10 Sudeste 0 -- -- 90
2019-04-05 08:00:00 2.2 6 Sur 9 Sur 0 -- -- 93
2019-04-05 07:00:00 1.9 3 Nordeste 17 Oeste 0 -- -- 93
2019-04-05 06:00:00 2.8 12 Oeste 39 Oeste 0.4 -- -- 92
2019-04-05 05:00:00 4.6 14 Sur 23 Sur 0.4 -- -- 94
2019-04-05 04:00:00 4.2 14 Sur 26 Sur 0.2 -- -- 94
2019-04-05 03:00:00 4.3 18 Sur 37 Sur 0 -- -- 92
2019-04-05 02:00:00 4.1 27 Sur 35 Sur 0 -- -- 90
2019-04-05 01:00:00 4 26 Sur 39 Sur 0.2 -- -- 91
2019-04-05 00:00:00 4 21 Sur 35 Sur 0 -- -- 90
2019-04-04 23:00:00 3.9 24 Sur 35 Sur 0.2 -- -- 90
2019-04-04 22:00:00 3.9 24 Sur 37 Sur 0.8 -- -- 90
2019-04-04 21:00:00 4.4 15 Sudoeste 27 Sudoeste 0.8 -- -- 88
2019-04-04 20:00:00 6.5 10 Oeste 29 Sudoeste 0 -- -- 74
2019-04-04 19:00:00 9.5 16 Sudoeste 31 Sudoeste 0 -- -- 48
2019-04-04 18:00:00 10.6 21 Sudoeste 33 Sudoeste 0 -- -- 40
2019-04-04 17:00:00 11.5 13 Sur 23 Sur 0 -- -- 36
2019-04-04 16:00:00 11.2 13 Oeste 24 Oeste 0 -- -- 42
2019-04-04 15:00:00 10.3 9 Sudoeste 24 Sur 0 -- -- 39
2019-04-04 14:00:00 8.7 4 Este 15 Sudoeste 0 -- -- 45
2019-04-04 13:00:00 7.3 4 Nordeste 14 Norte 0 -- -- 55
2019-04-04 12:00:00 5.2 3 Oeste 8 Sur 0 -- -- 61
2019-04-04 11:00:00 3.8 2 Norte 8 Sur 0 -- -- 70
2019-04-04 10:00:00 0.7 5 Sur 7 Sur 0 -- -- 84
2019-04-04 09:00:00 -1.8 3 Sudeste 9 Nordeste 0 -- -- 86
2019-04-04 08:00:00 -1.9 5 Nordeste 9 Nordeste 0 -- -- 86
2019-04-04 07:00:00 -2.2 0 Calma 10 Norte 0 -- -- 81
2019-04-04 06:00:00 -0.9 8 Norte 14 Nordeste 0 -- -- 82
2019-04-04 05:00:00 -1.1 4 Noroeste 9 Noroeste 0 -- -- 79
2019-04-04 04:00:00 -0.2 6 Norte 16 Nordeste 0 -- -- 74
2019-04-04 03:00:00 0.9 10 Norte 24 Norte 0 -- -- 73
2019-04-04 02:00:00 1.8 15 Norte 28 Noroeste 0 -- -- 68
2019-04-04 01:00:00 2.9 19 Norte 30 Norte 0 -- -- 63
2019-04-04 00:00:00 3.4 9 Norte 27 Noroeste 0 -- -- 63
2019-04-03 23:00:00 4.6 20 Noroeste 32 Noroeste 0 -- -- 60
2019-04-03 22:00:00 5.5 15 Norte 31 Norte 0 -- -- 52
2019-04-03 21:00:00 6.8 19 Norte 39 Norte 0 -- -- 49
2019-04-03 20:00:00 9 27 Norte 47 Norte 0 -- -- 44
2019-04-03 19:00:00 9.8 28 Norte 45 Norte 0 -- -- 45
2019-04-03 18:00:00 10.2 28 Noroeste 43 Noroeste 0 -- -- 44
2019-04-03 17:00:00 10.2 27 Norte 51 Noroeste 0 -- -- 44
2019-04-03 16:00:00 9.8 33 Noroeste 49 Norte 0 -- -- 44
2019-04-03 15:00:00 9.3 27 Norte 48 Norte 0 -- -- 50
2019-04-03 14:00:00 8.6 28 Noroeste 50 Noroeste 0 -- -- 56
2019-04-03 13:00:00 8 25 Norte 43 Norte 0 -- -- 57
2019-04-03 12:00:00 7.2 23 Noroeste 34 Noroeste 0 -- -- 65
2019-04-03 11:00:00 5.9 15 Noroeste 31 Noroeste 0 -- -- 73
2019-04-03 10:00:00 4.8 14 Norte 24 Noroeste 0 -- -- 83
2019-04-03 09:00:00 4.2 13 Noroeste 18 Norte 0 -- -- 93
2019-04-03 08:00:00 4.2 9 Noroeste 14 Noroeste 0 -- -- 95
2019-04-03 07:00:00 3.7 5 Noroeste 10 Noroeste 0 -- -- 94
2019-04-03 06:00:00 4.5 3 Oeste 7 Oeste 0 -- -- 93
2019-04-03 05:00:00 4.9 5 Noroeste 18 Norte 0 -- -- 93
2019-04-03 04:00:00 5.1 4 Norte 9 Noroeste 0 -- -- 86
2019-04-03 03:00:00 4.6 0 Calma 8 Sur 0 -- -- 86
2019-04-03 02:00:00 7 0 Calma 6 Oeste 0 -- -- 79
2019-04-03 01:00:00 7.3 3 Sudoeste 10 Oeste 0 -- -- 80
2019-04-03 00:00:00 8.4 8 Noroeste 22 Oeste 0 -- -- 78
2019-04-02 23:00:00 10.1 15 Noroeste 27 Oeste 0 -- -- 73
2019-04-02 22:00:00 11.2 15 Oeste 24 Oeste 0 -- -- 62
2019-04-02 21:00:00 12.8 14 Oeste 28 Noroeste 0 -- -- 53
2019-04-02 20:00:00 15.3 20 Noroeste 27 Noroeste 0 -- -- 46
2019-04-02 19:00:00 16.4 16 Noroeste 28 Oeste 0 -- -- 39
2019-04-02 18:00:00 16.6 12 Noroeste 28 Oeste 0 -- -- 41
2019-04-02 17:00:00 16.6 18 Oeste 30 Noroeste 0 -- -- 41
2019-04-02 16:00:00 15.3 14 Oeste 26 Oeste 0 -- -- 48
2019-04-02 15:00:00 15.8 13 Oeste 23 Oeste 0 -- -- 45
2019-04-02 14:00:00 14.2 9 Noroeste 20 Noroeste 0 -- -- 54
2019-04-02 13:00:00 13.1 6 Sudoeste 12 Oeste 0 -- -- 66
2019-04-02 12:00:00 11.3 5 Oeste 10 Sudoeste 0 -- -- 74
2019-04-02 11:00:00 10.5 3 Noroeste 10 Sur 0 -- -- 80
2019-04-02 10:00:00 7.4 6 Sur 9 Sur 0 -- -- 96
2019-04-02 09:00:00 5.3 7 Sur 12 Sur 0 -- -- 96
2019-04-02 08:00:00 4.4 7 Sur 12 Sudeste 0 -- -- 95
2019-04-02 07:00:00 5.3 8 Sudeste 13 Sur 0 -- -- 93
2019-04-02 06:00:00 6 2 Sur 11 Sudeste 0 -- -- 93
2019-04-02 05:00:00 6.5 9 Sur 13 Sur 0 -- -- 93
2019-04-02 04:00:00 6.2 6 Sur 13 Sur 0 -- -- 93
2019-04-02 03:00:00 6.7 8 Sur 13 Sur 0 -- -- 90
2019-04-02 02:00:00 7 4 Sur 10 Sur 0 -- -- 87
2019-04-02 01:00:00 8.2 2 Sudoeste 6 Sudeste 0 -- -- 85
2019-04-02 00:00:00 9.1 4 Este 6 Este 0 -- -- 82
2019-04-01 23:00:00 9.1 4 Noroeste 10 Norte 0 -- -- 84
2019-04-01 22:00:00 8.7 6 Sudeste 13 Sudeste 0 -- -- 86
2019-04-01 21:00:00 9.4 7 Sur 14 Oeste 0 -- -- 80
2019-04-01 20:00:00 10.5 10 Sudoeste 15 Sudoeste 0 -- -- 78
2019-04-01 19:00:00 10.8 8 Sudoeste 19 Sudeste 0 -- -- 77
2019-04-01 18:00:00 10.2 12 Sur 21 Sur 0 -- -- 79
2019-04-01 17:00:00 9.9 13 Sur 26 Sudeste 0.8 -- -- 83
2019-04-01 16:00:00 10.9 12 Sur 24 Sur 0 -- -- 74
2019-04-01 15:00:00 13.1 17 Sur 21 Sur 0 -- -- 64
2019-04-01 14:00:00 14.4 4 Norte 11 Noroeste 0 -- -- 56
2019-04-01 13:00:00 13.2 4 Noroeste 10 Sudoeste 0 -- -- 63
2019-04-01 12:00:00 12.1 3 Este 9 Este 0 -- -- 69
2019-04-01 11:00:00 9.8 6 Norte 9 Norte 0 -- -- 78
2019-04-01 10:00:00 7 4 Noroeste 7 Norte 0 -- -- 87
2019-04-01 09:00:00 5.5 3 Noroeste 5 Noroeste 0 -- -- 88
2019-04-01 08:00:00 6 3 Noroeste 7 Este 0 -- -- 87
2019-04-01 07:00:00 6.3 6 Sur 13 Sur 0 -- -- 86
2019-04-01 06:00:00 6.9 8 Sur 21 Sur 0 -- -- 85
2019-04-01 05:00:00 7.7 10 Sur 19 Sur 0 -- -- 82
2019-04-01 04:00:00 7.6 12 Sur 23 Sur 0 -- -- 82
2019-04-01 03:00:00 8.5 12 Sur 25 Sur 0 -- -- 81
2019-04-01 02:00:00 8.2 18 Sur 24 Sur 0 -- -- 82
2019-04-01 01:00:00 9.1 16 Sur 24 Sur 0 -- -- 78
2019-04-01 00:00:00 10.2 16 Sur 25 Sudeste 0 -- -- 73
2019-03-31 23:00:00 10.8 15 Sur 23 Sur 0 -- -- 70
2019-03-31 22:00:00 11.5 10 Sur 15 Sur 0 -- -- 61
2019-03-31 21:00:00 12.9 10 Sudeste 14 Este 0 -- -- 58
2019-03-31 20:00:00 15.8 3 Este 20 Sudeste 0 -- -- 39
2019-03-31 19:00:00 15.7 13 Sudeste 36 Sudeste 0 -- -- 43
2019-03-31 18:00:00 14 21 Sudeste 44 Este 0 -- -- 55
2019-03-31 17:00:00 14.2 30 Este 44 Este 0 -- -- 50
2019-03-31 16:00:00 15.7 24 Este 41 Este 0 -- -- 47
2019-03-31 15:00:00 16.9 6 Noroeste 16 Nordeste 0 -- -- 40
2019-03-31 14:00:00 15.8 8 Norte 15 Nordeste 0 -- -- 44
2019-03-31 13:00:00 14.1 8 Norte 14 Norte 0 -- -- 50
2019-03-31 12:00:00 12.2 6 Norte 12 Norte 0 -- -- 60
2019-03-31 11:00:00 10.6 9 Sur 12 Sur 0 -- -- 61
2019-03-31 10:00:00 7.8 5 Sur 13 Sur 0 -- -- 71
2019-03-31 09:00:00 4.5 10 Sur 14 Sur 0 -- -- 75
2019-03-31 08:00:00 4.2 8 Sur 15 Sur 0 -- -- 75
2019-03-31 07:00:00 3.5 12 Sur 15 Sudeste 0 -- -- 79
2019-03-31 06:00:00 4.4 7 Sur 18 Sur 0 -- -- 73
2019-03-31 05:00:00 4.7 9 Sur 18 Sur 0 -- -- 74
2019-03-31 03:00:00 5.8 4 Sur 10 Sur 0 -- -- 73
2019-03-31 01:00:00 6.7 9 Sur 14 Sudeste 0 -- -- 66
2019-03-31 00:00:00 8.3 5 Sudeste 12 Sur 0 -- -- 60
2019-03-30 23:00:00 10.3 5 Sur 10 Sur 0 -- -- 48
2019-03-30 22:00:00 10.6 8 Sur 13 Sur 0 -- -- 49
2019-03-30 21:00:00 11.7 7 Sur 20 Sur 0 -- -- 50
2019-03-30 20:00:00 14.2 10 Sur 29 Sur 0 -- -- 41
2019-03-30 19:00:00 16.2 10 Este 18 Este 0 -- -- 36
2019-03-30 18:00:00 17 6 Este 16 Nordeste 0 -- -- 33
2019-03-30 17:00:00 18.4 8 Nordeste 15 Nordeste 0 -- -- 31
2019-03-30 16:00:00 18.7 5 Sudoeste 22 Sudeste 0 -- -- 26
2019-03-30 15:00:00 18.2 6 Sur 26 Este 0 -- -- 31
2019-03-30 14:00:00 17.5 12 Sur 21 Sur 0 -- -- 31
2019-03-30 13:00:00 16.7 10 Sur 23 Sur 0 -- -- 34
2019-03-30 12:00:00 15.9 12 Sudoeste 26 Sudoeste 0 -- -- 32
2019-03-30 11:00:00 14.7 12 Sur 19 Sur 0 -- -- 36
2019-03-30 10:00:00 11.5 6 Sur 14 Sur 0 -- -- 51
2019-03-30 09:00:00 6.9 7 Sur 13 Sur 0 -- -- 68
2019-03-30 08:00:00 2.2 8 Sur 14 Sur 0 -- -- 75
2019-03-30 07:00:00 2.4 10 Sur 12 Sur 0 -- -- 69
2019-03-30 06:00:00 2.8 2 Sur 5 Sudeste 0 -- -- 67
2019-03-30 05:00:00 5.1 0 Calma 7 Sur 0 -- -- 55
2019-03-30 04:00:00 6.3 6 Sur 12 Sur 0 -- -- 51
2019-03-30 03:00:00 5.7 9 Sur 14 Sur 0 -- -- 53
2019-03-30 02:00:00 5.6 10 Sur 14 Sur 0 -- -- 55
2019-03-30 01:00:00 6.3 11 Sur 16 Sur 0 -- -- 53
2019-03-30 00:00:00 7.6 10 Sur 15 Sur 0 -- -- 50
2019-03-29 23:00:00 8 9 Sur 12 Sudeste 0 -- -- 48
2019-03-29 22:00:00 8.6 9 Sur 14 Sur 0 -- -- 47
2019-03-29 21:00:00 9.3 9 Sur 13 Sudeste 0 -- -- 47
2019-03-29 20:00:00 11.8 8 Sur 22 Sur 0 -- -- 42
2019-03-29 19:00:00 14.8 14 Sur 25 Sur 0 -- -- 36
2019-03-29 18:00:00 16.3 19 Sudoeste 27 Sudoeste 0 -- -- 34
2019-03-29 17:00:00 17.5 9 Sur 21 Sudoeste 0 -- -- 33
2019-03-29 16:00:00 17.3 10 Sur 25 Sudoeste 0 -- -- 33
2019-03-29 15:00:00 16.9 14 Sur 34 Sur 0 -- -- 32
2019-03-29 14:00:00 16.1 21 Sur 31 Sur 0 -- -- 38
2019-03-29 13:00:00 15.7 16 Sur 29 Sur 0 -- -- 35
2019-03-29 12:00:00 14.7 15 Sur 27 Sur 0 -- -- 35
2019-03-29 11:00:00 13.1 14 Sur 22 Sur 0 -- -- 40
2019-03-29 10:00:00 11.4 14 Sur 20 Sur 0 -- -- 42
2019-03-29 09:00:00 7.2 7 Sur 11 Sur 0 -- -- 55
2019-03-29 08:00:00 3.3 3 Nordeste 14 Sur 0 -- -- 65
2019-03-29 07:00:00 3.2 9 Sur 12 Sur 0 -- -- 60
2019-03-29 06:00:00 3 4 Sudeste 9 Sur 0 -- -- 64
2019-03-29 05:00:00 1.9 5 Sur 16 Sudeste 0 -- -- 73
2019-03-29 04:00:00 1.6 13 Sur 17 Sudeste 0 -- -- 81
2019-03-29 03:00:00 3 10 Sur 13 Sur 0 -- -- 73
2019-03-29 02:00:00 4.8 7 Sudoeste 14 Sur 0 -- -- 63
2019-03-29 01:00:00 4.3 6 Sur 9 Sudeste 0 -- -- 67
2019-03-29 00:00:00 6.8 7 Sur 12 Sur 0 -- -- 59
2019-03-28 23:00:00 9.4 7 Sur 11 Sudoeste 0 -- -- 46
2019-03-28 22:00:00 10.1 6 Sur 13 Sur 0 -- -- 47
2019-03-28 21:00:00 12.2 0 Calma 7 Nordeste 0 -- -- 42
2019-03-28 20:00:00 13.9 3 Nordeste 11 Norte 0 -- -- 40
2019-03-28 19:00:00 16 8 Norte 14 Norte 0 -- -- 35
2019-03-28 18:00:00 16.7 6 Norte 17 Norte 0 -- -- 35
2019-03-28 17:00:00 16.9 7 Nordeste 19 Nordeste 0 -- -- 32
2019-03-28 16:00:00 16.9 5 Este 15 Nordeste 0 -- -- 32
2019-03-28 15:00:00 16.3 9 Norte 18 Norte 0 -- -- 34
2019-03-28 14:00:00 15.2 8 Nordeste 19 Norte 0 -- -- 40
2019-03-28 13:00:00 13 13 Norte 19 Norte 0 -- -- 45
2019-03-28 12:00:00 11.6 10 Norte 20 Nordeste 0 -- -- 48
2019-03-28 11:00:00 10.1 7 Norte 11 Noroeste 0 -- -- 50
2019-03-28 10:00:00 6 4 Norte 7 Noroeste 0 -- -- 56
2019-03-28 09:00:00 2.2 4 Norte 5 Noroeste 0 -- -- 68
2019-03-28 08:00:00 -1.1 0 Calma 9 Sur 0 -- -- 80
2019-03-28 07:00:00 -1.1 2 Sur 10 Sur 0 -- -- 76
2019-03-28 06:00:00 -0.9 5 Sur 10 Sur 0 -- -- 77
2019-03-28 05:00:00 -0.4 6 Sur 13 Sur 0 -- -- 79
2019-03-28 04:00:00 1.4 3 Sudoeste 9 Sur 0 -- -- 68
2019-03-28 03:00:00 1.3 8 Sur 12 Sur 0 -- -- 74
2019-03-28 02:00:00 3.4 4 Noroeste 14 Sur 0 -- -- 60
2019-03-28 01:00:00 6.5 3 Oeste 9 Sudoeste 0 -- -- 45
2019-03-28 00:00:00 8.3 5 Nordeste 18 Nordeste 0 -- -- 41
2019-03-27 23:00:00 9.2 9 Nordeste 14 Norte 0 -- -- 39
2019-03-27 22:00:00 10.3 6 Nordeste 14 Este 0 -- -- 35
2019-03-27 21:00:00 11.7 10 Este 14 Nordeste 0 -- -- 35
2019-03-27 20:00:00 13.7 9 Nordeste 26 Nordeste 0 -- -- 31
2019-03-27 19:00:00 16 14 Nordeste 32 Nordeste 0 -- -- 27
2019-03-27 18:00:00 16.8 18 Norte 31 Norte 0 -- -- 29
2019-03-27 17:00:00 16.9 14 Norte 28 Nordeste 0 -- -- 33
2019-03-27 16:00:00 16.4 13 Norte 24 Norte 0 -- -- 35
2019-03-27 15:00:00 15 12 Norte 21 Noroeste 0 -- -- 40
2019-03-27 14:00:00 13.5 13 Norte 22 Norte 0 -- -- 40
2019-03-27 13:00:00 11.7 9 Norte 17 Noroeste 0 -- -- 47
2019-03-27 12:00:00 9.7 10 Norte 17 Norte 0 -- -- 45
2019-03-27 11:00:00 7.9 7 Norte 14 Noroeste 0 -- -- 52
2019-03-27 10:00:00 4.9 5 Norte 10 Noroeste 0 -- -- 55
2019-03-27 09:00:00 1.6 6 Sur 9 Sur 0 -- -- 64
2019-03-27 08:00:00 -0.6 3 Noroeste 8 Noroeste 0 -- -- 64
2019-03-27 07:00:00 -1 3 Oeste 8 Noroeste 0 -- -- 64
2019-03-27 06:00:00 0.5 5 Noroeste 10 Norte 0 -- -- 58
2019-03-27 05:00:00 1.2 7 Noroeste 11 Noroeste 0 -- -- 58
2019-03-27 04:00:00 2.1 4 Noroeste 8 Sudoeste 0 -- -- 55
2019-03-27 03:00:00 3.2 4 Sur 8 Norte 0 -- -- 54
2019-03-27 02:00:00 4.5 4 Noroeste 12 Sudoeste 0 -- -- 49
2019-03-27 01:00:00 6.8 3 Este 14 Nordeste 0 -- -- 44
2019-03-27 00:00:00 9.7 9 Nordeste 19 Nordeste 0 -- -- 37